sensor_id;sensor_type;location;lat;lon;timestamp;temperature;humidity
12819;DHT22;6474;53.474;9.894;2023-06-22T00:02:09;19.10;62.70
12819;DHT22;6474;53.474;9.894;2023-06-22T00:04:37;19.10;63.50
12819;DHT22;6474;53.474;9.894;2023-06-22T00:07:07;19.00;62.60
12819;DHT22;6474;53.474;9.894;2023-06-22T00:09:35;19.00;62.70
12819;DHT22;6474;53.474;9.894;2023-06-22T00:12:05;19.00;62.70
12819;DHT22;6474;53.474;9.894;2023-06-22T00:14:33;19.00;62.80
12819;DHT22;6474;53.474;9.894;2023-06-22T00:17:01;19.00;62.80
12819;DHT22;6474;53.474;9.894;2023-06-22T00:19:29;19.00;62.80
12819;DHT22;6474;53.474;9.894;2023-06-22T00:21:57;19.00;62.80
12819;DHT22;6474;53.474;9.894;2023-06-22T00:24:33;19.00;62.80
12819;DHT22;6474;53.474;9.894;2023-06-22T00:27:01;19.10;62.90
12819;DHT22;6474;53.474;9.894;2023-06-22T00:29:29;19.10;63.60
12819;DHT22;6474;53.474;9.894;2023-06-22T00:31:57;19.10;62.80
12819;DHT22;6474;53.474;9.894;2023-06-22T00:34:25;19.20;62.80
12819;DHT22;6474;53.474;9.894;2023-06-22T00:36:53;19.20;62.80
12819;DHT22;6474;53.474;9.894;2023-06-22T00:39:25;19.20;62.80
12819;DHT22;6474;53.474;9.894;2023-06-22T00:41:56;19.20;62.70
12819;DHT22;6474;53.474;9.894;2023-06-22T00:44:24;19.20;62.70
12819;DHT22;6474;53.474;9.894;2023-06-22T00:46:52;19.30;62.70
12819;DHT22;6474;53.474;9.894;2023-06-22T00:49:20;19.30;62.70
12819;DHT22;6474;53.474;9.894;2023-06-22T00:51:48;19.30;62.70
12819;DHT22;6474;53.474;9.894;2023-06-22T00:54:16;19.20;62.60
12819;DHT22;6474;53.474;9.894;2023-06-22T00:56:54;19.30;62.70
12819;DHT22;6474;53.474;9.894;2023-06-22T00:59:24;19.30;62.70
12819;DHT22;6474;53.474;9.894;2023-06-22T01:01:53;19.30;62.70
12819;DHT22;6474;53.474;9.894;2023-06-22T01:04:24;19.20;62.60
12819;DHT22;6474;53.474;9.894;2023-06-22T01:06:57;19.20;62.60
12819;DHT22;6474;53.474;9.894;2023-06-22T01:09:32;19.20;62.70
12819;DHT22;6474;53.474;9.894;2023-06-22T01:12:06;19.20;62.80
12819;DHT22;6474;53.474;9.894;2023-06-22T01:14:38;19.20;62.80
12819;DHT22;6474;53.474;9.894;2023-06-22T01:17:12;19.10;62.80
12819;DHT22;6474;53.474;9.894;2023-06-22T01:19:46;19.00;62.80
12819;DHT22;6474;53.474;9.894;2023-06-22T01:22:16;19.00;62.90
12819;DHT22;6474;53.474;9.894;2023-06-22T01:24:52;19.00;62.90
12819;DHT22;6474;53.474;9.894;2023-06-22T01:27:32;19.00;63.00
12819;DHT22;6474;53.474;9.894;2023-06-22T01:30:09;18.90;62.90
12819;DHT22;6474;53.474;9.894;2023-06-22T01:32:39;18.90;63.00
12819;DHT22;6474;53.474;9.894;2023-06-22T01:35:09;18.90;63.00
12819;DHT22;6474;53.474;9.894;2023-06-22T01:37:38;18.80;63.00
12819;DHT22;6474;53.474;9.894;2023-06-22T01:40:10;18.70;63.00
12819;DHT22;6474;53.474;9.894;2023-06-22T01:42:39;18.80;63.20
12819;DHT22;6474;53.474;9.894;2023-06-22T01:45:10;18.70;63.20
12819;DHT22;6474;53.474;9.894;2023-06-22T01:47:39;18.70;63.20
12819;DHT22;6474;53.474;9.894;2023-06-22T01:50:08;18.70;64.00
12819;DHT22;6474;53.474;9.894;2023-06-22T01:52:39;18.70;63.20
12819;DHT22;6474;53.474;9.894;2023-06-22T01:55:08;18.70;63.20
12819;DHT22;6474;53.474;9.894;2023-06-22T01:57:36;18.60;63.20
12819;DHT22;6474;53.474;9.894;2023-06-22T02:00:10;18.60;63.20
12819;DHT22;6474;53.474;9.894;2023-06-22T02:02:45;18.60;64.00
12819;DHT22;6474;53.474;9.894;2023-06-22T02:05:18;18.60;63.30
12819;DHT22;6474;53.474;9.894;2023-06-22T02:07:49;18.60;63.30
12819;DHT22;6474;53.474;9.894;2023-06-22T02:10:20;18.60;63.30
12819;DHT22;6474;53.474;9.894;2023-06-22T02:12:50;18.50;63.20
12819;DHT22;6474;53.474;9.894;2023-06-22T02:15:20;18.50;63.30
12819;DHT22;6474;53.474;9.894;2023-06-22T02:17:48;18.50;63.30
12819;DHT22;6474;53.474;9.894;2023-06-22T02:20:17;18.40;63.30
12819;DHT22;6474;53.474;9.894;2023-06-22T02:22:45;18.40;63.30
12819;DHT22;6474;53.474;9.894;2023-06-22T02:25:13;18.40;63.30
12819;DHT22;6474;53.474;9.894;2023-06-22T02:27:44;18.40;63.30
12819;DHT22;6474;53.474;9.894;2023-06-22T02:30:12;18.40;64.10
12819;DHT22;6474;53.474;9.894;2023-06-22T02:32:44;18.30;63.30
12819;DHT22;6474;53.474;9.894;2023-06-22T02:35:12;18.30;63.40
12819;DHT22;6474;53.474;9.894;2023-06-22T02:37:41;18.20;63.40
12819;DHT22;6474;53.474;9.894;2023-06-22T02:40:10;18.20;63.40
12819;DHT22;6474;53.474;9.894;2023-06-22T02:42:40;18.20;63.40
12819;DHT22;6474;53.474;9.894;2023-06-22T02:45:08;18.10;63.30
12819;DHT22;6474;53.474;9.894;2023-06-22T02:47:37;18.10;63.40
12819;DHT22;6474;53.474;9.894;2023-06-22T02:50:07;18.10;63.40
12819;DHT22;6474;53.474;9.894;2023-06-22T02:52:37;18.10;63.40
12819;DHT22;6474;53.474;9.894;2023-06-22T02:55:06;18.10;63.40
12819;DHT22;6474;53.474;9.894;2023-06-22T02:57:38;18.00;63.40
12819;DHT22;6474;53.474;9.894;2023-06-22T03:00:14;17.90;63.40
12819;DHT22;6474;53.474;9.894;2023-06-22T03:02:44;18.00;63.50
12819;DHT22;6474;53.474;9.894;2023-06-22T03:05:15;17.90;63.50
12819;DHT22;6474;53.474;9.894;2023-06-22T03:07:45;17.90;63.50
12819;DHT22;6474;53.474;9.894;2023-06-22T03:10:15;17.90;63.50
12819;DHT22;6474;53.474;9.894;2023-06-22T03:12:43;17.90;63.60
12819;DHT22;6474;53.474;9.894;2023-06-22T03:15:12;17.80;63.50
12819;DHT22;6474;53.474;9.894;2023-06-22T03:17:41;17.80;64.40
12819;DHT22;6474;53.474;9.894;2023-06-22T03:20:10;17.80;63.70
12819;DHT22;6474;53.474;9.894;2023-06-22T03:22:41;17.80;63.70
12819;DHT22;6474;53.474;9.894;2023-06-22T03:25:10;17.80;63.70
12819;DHT22;6474;53.474;9.894;2023-06-22T03:27:40;17.80;63.70
12819;DHT22;6474;53.474;9.894;2023-06-22T03:30:10;17.80;63.60
12819;DHT22;6474;53.474;9.894;2023-06-22T03:32:39;17.80;63.60
12819;DHT22;6474;53.474;9.894;2023-06-22T03:35:08;17.90;63.60
12819;DHT22;6474;53.474;9.894;2023-06-22T03:37:41;17.90;63.60
12819;DHT22;6474;53.474;9.894;2023-06-22T03:40:10;18.00;63.60
12819;DHT22;6474;53.474;9.894;2023-06-22T03:42:40;18.00;63.60
12819;DHT22;6474;53.474;9.894;2023-06-22T03:45:10;18.00;63.50
12819;DHT22;6474;53.474;9.894;2023-06-22T03:47:38;18.10;63.50
12819;DHT22;6474;53.474;9.894;2023-06-22T03:50:08;18.20;63.50
12819;DHT22;6474;53.474;9.894;2023-06-22T03:52:36;18.20;63.40
12819;DHT22;6474;53.474;9.894;2023-06-22T03:55:07;18.40;63.50
12819;DHT22;6474;53.474;9.894;2023-06-22T03:57:35;18.40;63.30
12819;DHT22;6474;53.474;9.894;2023-06-22T04:00:04;18.50;63.20
12819;DHT22;6474;53.474;9.894;2023-06-22T04:02:32;18.50;63.10
12819;DHT22;6474;53.474;9.894;2023-06-22T04:05:00;18.60;63.10
12819;DHT22;6474;53.474;9.894;2023-06-22T04:07:30;18.70;63.10
12819;DHT22;6474;53.474;9.894;2023-06-22T04:09:58;18.70;63.00
12819;DHT22;6474;53.474;9.894;2023-06-22T04:12:28;18.70;63.00
12819;DHT22;6474;53.474;9.894;2023-06-22T04:14:55;18.80;63.00
12819;DHT22;6474;53.474;9.894;2023-06-22T04:17:23;18.90;63.10
12819;DHT22;6474;53.474;9.894;2023-06-22T04:19:52;18.90;63.10
12819;DHT22;6474;53.474;9.894;2023-06-22T04:22:20;19.00;63.20
12819;DHT22;6474;53.474;9.894;2023-06-22T04:24:48;19.00;63.10
12819;DHT22;6474;53.474;9.894;2023-06-22T04:27:18;19.10;63.10
12819;DHT22;6474;53.474;9.894;2023-06-22T04:29:47;19.10;63.10
12819;DHT22;6474;53.474;9.894;2023-06-22T04:32:16;19.10;63.10
12819;DHT22;6474;53.474;9.894;2023-06-22T04:34:44;19.20;63.10
12819;DHT22;6474;53.474;9.894;2023-06-22T04:37:12;19.30;63.10
12819;DHT22;6474;53.474;9.894;2023-06-22T04:39:42;19.30;63.00
12819;DHT22;6474;53.474;9.894;2023-06-22T04:42:12;19.40;63.10
12819;DHT22;6474;53.474;9.894;2023-06-22T04:44:39;19.40;63.00
12819;DHT22;6474;53.474;9.894;2023-06-22T04:47:09;19.50;63.10
12819;DHT22;6474;53.474;9.894;2023-06-22T04:49:37;19.50;63.00
12819;DHT22;6474;53.474;9.894;2023-06-22T04:52:08;19.60;63.00
12819;DHT22;6474;53.474;9.894;2023-06-22T04:54:38;19.60;63.00
12819;DHT22;6474;53.474;9.894;2023-06-22T04:57:07;19.70;63.80
12819;DHT22;6474;53.474;9.894;2023-06-22T04:59:37;19.80;63.00
12819;DHT22;6474;53.474;9.894;2023-06-22T05:02:10;19.90;63.00
12819;DHT22;6474;53.474;9.894;2023-06-22T05:04:38;20.00;63.00
12819;DHT22;6474;53.474;9.894;2023-06-22T05:07:07;20.00;63.00
12819;DHT22;6474;53.474;9.894;2023-06-22T05:09:34;20.10;63.00
12819;DHT22;6474;53.474;9.894;2023-06-22T05:12:03;20.20;63.00
12819;DHT22;6474;53.474;9.894;2023-06-22T05:14:33;20.30;63.00
12819;DHT22;6474;53.474;9.894;2023-06-22T05:17:01;20.30;62.90
12819;DHT22;6474;53.474;9.894;2023-06-22T05:19:32;20.40;63.00
12819;DHT22;6474;53.474;9.894;2023-06-22T05:22:01;20.50;63.00
12819;DHT22;6474;53.474;9.894;2023-06-22T05:24:29;20.60;63.10
12819;DHT22;6474;53.474;9.894;2023-06-22T05:26:57;20.60;63.00
12819;DHT22;6474;53.474;9.894;2023-06-22T05:29:25;20.80;63.10
12819;DHT22;6474;53.474;9.894;2023-06-22T05:31:53;20.80;62.90
12819;DHT22;6474;53.474;9.894;2023-06-22T05:34:21;20.90;62.60
12819;DHT22;6474;53.474;9.894;2023-06-22T05:36:50;21.00;62.70
12819;DHT22;6474;53.474;9.894;2023-06-22T05:39:18;21.10;62.80
12819;DHT22;6474;53.474;9.894;2023-06-22T05:41:46;21.20;62.80
12819;DHT22;6474;53.474;9.894;2023-06-22T05:44:14;21.30;62.50
12819;DHT22;6474;53.474;9.894;2023-06-22T05:46:43;21.40;62.50
12819;DHT22;6474;53.474;9.894;2023-06-22T05:49:13;21.50;62.60
12819;DHT22;6474;53.474;9.894;2023-06-22T05:51:42;21.60;62.70
12819;DHT22;6474;53.474;9.894;2023-06-22T05:54:11;21.60;62.70
12819;DHT22;6474;53.474;9.894;2023-06-22T05:56:40;21.70;62.70
12819;DHT22;6474;53.474;9.894;2023-06-22T05:59:08;21.80;62.90
12819;DHT22;6474;53.474;9.894;2023-06-22T06:01:36;21.90;63.00
12819;DHT22;6474;53.474;9.894;2023-06-22T06:04:04;22.00;63.10
12819;DHT22;6474;53.474;9.894;2023-06-22T06:06:35;22.10;63.20
12819;DHT22;6474;53.474;9.894;2023-06-22T06:09:04;22.10;63.20
12819;DHT22;6474;53.474;9.894;2023-06-22T06:11:35;22.20;63.30
12819;DHT22;6474;53.474;9.894;2023-06-22T06:14:03;22.30;63.10
12819;DHT22;6474;53.474;9.894;2023-06-22T06:16:31;22.40;62.90
12819;DHT22;6474;53.474;9.894;2023-06-22T06:18:59;22.50;62.90
12819;DHT22;6474;53.474;9.894;2023-06-22T06:21:27;22.60;62.80
12819;DHT22;6474;53.474;9.894;2023-06-22T06:23:57;22.70;62.80
12819;DHT22;6474;53.474;9.894;2023-06-22T06:26:25;22.80;63.60
12819;DHT22;6474;53.474;9.894;2023-06-22T06:28:58;22.80;62.80
12819;DHT22;6474;53.474;9.894;2023-06-22T06:31:26;23.00;62.90
12819;DHT22;6474;53.474;9.894;2023-06-22T06:33:55;23.10;62.80
12819;DHT22;6474;53.474;9.894;2023-06-22T06:36:23;23.10;62.80
12819;DHT22;6474;53.474;9.894;2023-06-22T06:38:51;23.20;62.70
12819;DHT22;6474;53.474;9.894;2023-06-22T06:41:19;23.30;62.60
12819;DHT22;6474;53.474;9.894;2023-06-22T06:43:47;23.40;62.50
12819;DHT22;6474;53.474;9.894;2023-06-22T06:46:16;23.40;62.30
12819;DHT22;6474;53.474;9.894;2023-06-22T06:48:45;23.50;62.40
12819;DHT22;6474;53.474;9.894;2023-06-22T06:51:13;23.50;62.40
12819;DHT22;6474;53.474;9.894;2023-06-22T06:53:41;23.40;62.40
12819;DHT22;6474;53.474;9.894;2023-06-22T06:56:09;23.40;62.50
12819;DHT22;6474;53.474;9.894;2023-06-22T06:58:40;23.40;62.50
12819;DHT22;6474;53.474;9.894;2023-06-22T07:01:09;23.30;62.60
12819;DHT22;6474;53.474;9.894;2023-06-22T07:03:38;23.30;62.60
12819;DHT22;6474;53.474;9.894;2023-06-22T07:06:06;23.10;62.50
12819;DHT22;6474;53.474;9.894;2023-06-22T07:08:34;23.10;62.70
12819;DHT22;6474;53.474;9.894;2023-06-22T07:11:03;23.00;62.70
12819;DHT22;6474;53.474;9.894;2023-06-22T07:13:31;22.90;62.70
12819;DHT22;6474;53.474;9.894;2023-06-22T07:16:00;22.90;62.80
12819;DHT22;6474;53.474;9.894;2023-06-22T07:18:28;22.90;62.90
12819;DHT22;6474;53.474;9.894;2023-06-22T07:20:57;23.10;63.00
12819;DHT22;6474;53.474;9.894;2023-06-22T07:23:25;23.30;62.90
12819;DHT22;6474;53.474;9.894;2023-06-22T07:25:53;23.40;62.70
12819;DHT22;6474;53.474;9.894;2023-06-22T07:28:21;23.60;62.70
12819;DHT22;6474;53.474;9.894;2023-06-22T07:30:49;23.70;62.50
12819;DHT22;6474;53.474;9.894;2023-06-22T07:33:18;23.70;62.40
12819;DHT22;6474;53.474;9.894;2023-06-22T07:35:46;23.70;62.40
12819;DHT22;6474;53.474;9.894;2023-06-22T07:38:16;23.80;62.40
12819;DHT22;6474;53.474;9.894;2023-06-22T07:40:45;23.90;62.40
12819;DHT22;6474;53.474;9.894;2023-06-22T07:43:13;24.00;62.40
12819;DHT22;6474;53.474;9.894;2023-06-22T07:45:48;24.10;62.40
12819;DHT22;6474;53.474;9.894;2023-06-22T07:48:20;24.20;62.30
12819;DHT22;6474;53.474;9.894;2023-06-22T07:50:48;24.30;62.40
12819;DHT22;6474;53.474;9.894;2023-06-22T07:53:17;24.40;62.40
12819;DHT22;6474;53.474;9.894;2023-06-22T07:55:45;24.40;62.40
12819;DHT22;6474;53.474;9.894;2023-06-22T07:58:15;24.40;62.40
12819;DHT22;6474;53.474;9.894;2023-06-22T08:00:45;24.50;62.50
12819;DHT22;6474;53.474;9.894;2023-06-22T08:03:13;24.60;62.70
12819;DHT22;6474;53.474;9.894;2023-06-22T08:05:41;24.70;62.80
12819;DHT22;6474;53.474;9.894;2023-06-22T08:08:09;24.80;62.70
12819;DHT22;6474;53.474;9.894;2023-06-22T08:10:38;25.00;62.70
12819;DHT22;6474;53.474;9.894;2023-06-22T08:13:06;25.10;62.60
12819;DHT22;6474;53.474;9.894;2023-06-22T08:15:34;25.10;62.60
12819;DHT22;6474;53.474;9.894;2023-06-22T08:18:02;25.10;62.70
12819;DHT22;6474;53.474;9.894;2023-06-22T08:20:30;25.10;62.70
12819;DHT22;6474;53.474;9.894;2023-06-22T08:22:58;25.10;62.80
12819;DHT22;6474;53.474;9.894;2023-06-22T08:25:32;25.20;62.80
12819;DHT22;6474;53.474;9.894;2023-06-22T08:28:03;25.30;62.70
12819;DHT22;6474;53.474;9.894;2023-06-22T08:30:31;25.30;62.70
12819;DHT22;6474;53.474;9.894;2023-06-22T08:32:58;25.30;62.50
12819;DHT22;6474;53.474;9.894;2023-06-22T08:35:27;25.40;62.40
12819;DHT22;6474;53.474;9.894;2023-06-22T08:37:56;25.40;62.40
12819;DHT22;6474;53.474;9.894;2023-06-22T08:40:25;25.40;62.30
12819;DHT22;6474;53.474;9.894;2023-06-22T08:42:53;25.50;62.20
12819;DHT22;6474;53.474;9.894;2023-06-22T08:45:22;25.50;62.10
12819;DHT22;6474;53.474;9.894;2023-06-22T08:47:55;25.50;62.00
12819;DHT22;6474;53.474;9.894;2023-06-22T08:50:23;25.60;62.00
12819;DHT22;6474;53.474;9.894;2023-06-22T08:52:51;25.60;61.90
12819;DHT22;6474;53.474;9.894;2023-06-22T08:55:19;25.60;61.80
12819;DHT22;6474;53.474;9.894;2023-06-22T08:57:47;25.60;61.70
12819;DHT22;6474;53.474;9.894;2023-06-22T09:00:16;25.60;61.60
12819;DHT22;6474;53.474;9.894;2023-06-22T09:02:48;25.60;61.60
12819;DHT22;6474;53.474;9.894;2023-06-22T09:05:17;25.60;61.70
12819;DHT22;6474;53.474;9.894;2023-06-22T09:07:45;25.70;61.60
12819;DHT22;6474;53.474;9.894;2023-06-22T09:10:13;25.70;61.50
12819;DHT22;6474;53.474;9.894;2023-06-22T09:12:40;25.70;61.40
12819;DHT22;6474;53.474;9.894;2023-06-22T09:15:09;25.80;61.30
12819;DHT22;6474;53.474;9.894;2023-06-22T09:17:43;25.80;61.30
12819;DHT22;6474;53.474;9.894;2023-06-22T09:20:15;25.90;61.40
12819;DHT22;6474;53.474;9.894;2023-06-22T09:22:42;25.90;62.20
12819;DHT22;6474;53.474;9.894;2023-06-22T09:25:10;26.00;61.40
12819;DHT22;6474;53.474;9.894;2023-06-22T09:27:39;26.00;61.20
12819;DHT22;6474;53.474;9.894;2023-06-22T09:30:08;26.10;61.00
12819;DHT22;6474;53.474;9.894;2023-06-22T09:32:36;26.10;60.90
12819;DHT22;6474;53.474;9.894;2023-06-22T09:35:05;26.20;60.80
12819;DHT22;6474;53.474;9.894;2023-06-22T09:37:36;26.30;60.70
12819;DHT22;6474;53.474;9.894;2023-06-22T09:40:06;26.40;60.50
12819;DHT22;6474;53.474;9.894;2023-06-22T09:42:37;26.50;60.50
12819;DHT22;6474;53.474;9.894;2023-06-22T09:45:06;26.50;60.40
12819;DHT22;6474;53.474;9.894;2023-06-22T09:47:34;26.50;60.40
12819;DHT22;6474;53.474;9.894;2023-06-22T09:50:02;26.50;60.40
12819;DHT22;6474;53.474;9.894;2023-06-22T09:52:30;26.60;60.40
12819;DHT22;6474;53.474;9.894;2023-06-22T09:55:10;26.60;60.30
12819;DHT22;6474;53.474;9.894;2023-06-22T09:57:38;26.70;60.20
12819;DHT22;6474;53.474;9.894;2023-06-22T10:00:07;26.70;60.20
12819;DHT22;6474;53.474;9.894;2023-06-22T10:02:37;26.70;60.20
12819;DHT22;6474;53.474;9.894;2023-06-22T10:05:05;26.70;60.20
12819;DHT22;6474;53.474;9.894;2023-06-22T10:07:36;26.70;60.20
12819;DHT22;6474;53.474;9.894;2023-06-22T10:10:07;26.80;60.20
12819;DHT22;6474;53.474;9.894;2023-06-22T10:12:40;26.80;61.00
12819;DHT22;6474;53.474;9.894;2023-06-22T10:15:09;26.90;60.10
12819;DHT22;6474;53.474;9.894;2023-06-22T10:17:38;26.90;60.00
12819;DHT22;6474;53.474;9.894;2023-06-22T10:20:07;27.00;60.00
12819;DHT22;6474;53.474;9.894;2023-06-22T10:22:38;27.10;60.00
12819;DHT22;6474;53.474;9.894;2023-06-22T10:25:08;27.20;59.90
12819;DHT22;6474;53.474;9.894;2023-06-22T10:27:37;27.30;59.80
12819;DHT22;6474;53.474;9.894;2023-06-22T10:30:08;27.40;59.80
12819;DHT22;6474;53.474;9.894;2023-06-22T10:32:37;27.50;59.70
12819;DHT22;6474;53.474;9.894;2023-06-22T10:35:06;27.50;59.50
12819;DHT22;6474;53.474;9.894;2023-06-22T10:37:35;27.50;59.50
12819;DHT22;6474;53.474;9.894;2023-06-22T10:40:03;27.50;59.50
12819;DHT22;6474;53.474;9.894;2023-06-22T10:42:32;27.50;59.50
12819;DHT22;6474;53.474;9.894;2023-06-22T10:45:01;27.50;59.50
12819;DHT22;6474;53.474;9.894;2023-06-22T10:47:29;27.50;59.60
12819;DHT22;6474;53.474;9.894;2023-06-22T10:49:57;27.60;59.60
12819;DHT22;6474;53.474;9.894;2023-06-22T10:52:26;27.60;59.50
12819;DHT22;6474;53.474;9.894;2023-06-22T10:54:54;27.70;59.50
12819;DHT22;6474;53.474;9.894;2023-06-22T10:57:22;27.70;59.40
12819;DHT22;6474;53.474;9.894;2023-06-22T10:59:52;27.80;59.40
12819;DHT22;6474;53.474;9.894;2023-06-22T11:02:21;27.90;59.30
12819;DHT22;6474;53.474;9.894;2023-06-22T11:04:49;27.90;59.30
12819;DHT22;6474;53.474;9.894;2023-06-22T11:07:17;28.00;59.30
12819;DHT22;6474;53.474;9.894;2023-06-22T11:09:45;28.00;59.30
12819;DHT22;6474;53.474;9.894;2023-06-22T11:12:13;27.90;59.20
12819;DHT22;6474;53.474;9.894;2023-06-22T11:14:42;27.90;59.30
12819;DHT22;6474;53.474;9.894;2023-06-22T11:17:09;28.00;59.30
12819;DHT22;6474;53.474;9.894;2023-06-22T11:19:39;28.00;59.30
12819;DHT22;6474;53.474;9.894;2023-06-22T11:22:07;28.10;59.30
12819;DHT22;6474;53.474;9.894;2023-06-22T11:24:35;28.20;59.20
12819;DHT22;6474;53.474;9.894;2023-06-22T11:27:07;28.20;59.20
12819;DHT22;6474;53.474;9.894;2023-06-22T11:29:34;28.10;59.20
12819;DHT22;6474;53.474;9.894;2023-06-22T11:32:05;28.10;59.30
12819;DHT22;6474;53.474;9.894;2023-06-22T11:34:33;27.90;59.40
12819;DHT22;6474;53.474;9.894;2023-06-22T11:37:04;27.90;59.60
12819;DHT22;6474;53.474;9.894;2023-06-22T11:39:32;27.80;59.60
12819;DHT22;6474;53.474;9.894;2023-06-22T11:42:08;27.90;59.70
12819;DHT22;6474;53.474;9.894;2023-06-22T11:44:37;27.90;59.70
12819;DHT22;6474;53.474;9.894;2023-06-22T11:47:05;27.80;59.70
12819;DHT22;6474;53.474;9.894;2023-06-22T11:49:33;27.80;59.70
12819;DHT22;6474;53.474;9.894;2023-06-22T11:52:04;27.80;59.90
12819;DHT22;6474;53.474;9.894;2023-06-22T11:54:32;27.70;60.00
12819;DHT22;6474;53.474;9.894;2023-06-22T11:57:00;27.80;60.10
12819;DHT22;6474;53.474;9.894;2023-06-22T11:59:28;27.80;60.10
12819;DHT22;6474;53.474;9.894;2023-06-22T12:01:58;27.90;60.10
12819;DHT22;6474;53.474;9.894;2023-06-22T12:04:26;28.00;60.00
12819;DHT22;6474;53.474;9.894;2023-06-22T12:06:54;28.10;60.00
12819;DHT22;6474;53.474;9.894;2023-06-22T12:09:25;28.20;59.90
12819;DHT22;6474;53.474;9.894;2023-06-22T12:11:53;28.30;59.80
12819;DHT22;6474;53.474;9.894;2023-06-22T12:14:21;28.40;59.80
12819;DHT22;6474;53.474;9.894;2023-06-22T12:16:49;28.40;59.70
12819;DHT22;6474;53.474;9.894;2023-06-22T12:19:17;28.40;60.40
12819;DHT22;6474;53.474;9.894;2023-06-22T12:21:46;28.40;59.80
12819;DHT22;6474;53.474;9.894;2023-06-22T12:24:14;28.50;59.80
12819;DHT22;6474;53.474;9.894;2023-06-22T12:26:43;28.40;59.80
12819;DHT22;6474;53.474;9.894;2023-06-22T12:29:11;28.50;59.90
12819;DHT22;6474;53.474;9.894;2023-06-22T12:31:40;28.50;59.80
12819;DHT22;6474;53.474;9.894;2023-06-22T12:34:08;28.50;59.70
12819;DHT22;6474;53.474;9.894;2023-06-22T12:36:37;28.70;59.80
12819;DHT22;6474;53.474;9.894;2023-06-22T12:39:04;28.70;59.70
12819;DHT22;6474;53.474;9.894;2023-06-22T12:41:32;28.80;59.60
12819;DHT22;6474;53.474;9.894;2023-06-22T12:44:02;28.90;59.60
12819;DHT22;6474;53.474;9.894;2023-06-22T12:46:31;28.90;59.50
12819;DHT22;6474;53.474;9.894;2023-06-22T12:49:04;28.90;59.50
12819;DHT22;6474;53.474;9.894;2023-06-22T12:51:32;28.80;59.50
12819;DHT22;6474;53.474;9.894;2023-06-22T12:54:00;28.80;59.60
12819;DHT22;6474;53.474;9.894;2023-06-22T12:56:29;28.70;59.70
12819;DHT22;6474;53.474;9.894;2023-06-22T12:58:58;28.80;59.70
12819;DHT22;6474;53.474;9.894;2023-06-22T13:01:29;28.80;59.70
12819;DHT22;6474;53.474;9.894;2023-06-22T13:03:59;28.80;59.70
12819;DHT22;6474;53.474;9.894;2023-06-22T13:06:28;28.70;59.70
12819;DHT22;6474;53.474;9.894;2023-06-22T13:08:56;28.70;59.70
12819;DHT22;6474;53.474;9.894;2023-06-22T13:11:44;28.60;59.70
12819;DHT22;6474;53.474;9.894;2023-06-22T13:14:13;28.50;60.40
12819;DHT22;6474;53.474;9.894;2023-06-22T13:16:44;28.50;59.80
12819;DHT22;6474;53.474;9.894;2023-06-22T13:19:11;28.50;59.80
12819;DHT22;6474;53.474;9.894;2023-06-22T13:21:40;28.50;59.90
12819;DHT22;6474;53.474;9.894;2023-06-22T13:24:08;28.40;59.90
12819;DHT22;6474;53.474;9.894;2023-06-22T13:26:35;28.40;60.00
12819;DHT22;6474;53.474;9.894;2023-06-22T13:29:04;28.50;60.00
12819;DHT22;6474;53.474;9.894;2023-06-22T13:31:31;28.40;59.90
12819;DHT22;6474;53.474;9.894;2023-06-22T13:34:01;28.50;60.00
12819;DHT22;6474;53.474;9.894;2023-06-22T13:36:29;28.50;59.90
12819;DHT22;6474;53.474;9.894;2023-06-22T13:38:57;28.60;60.00
12819;DHT22;6474;53.474;9.894;2023-06-22T13:41:25;28.60;59.80
12819;DHT22;6474;53.474;9.894;2023-06-22T13:43:53;28.70;59.80
12819;DHT22;6474;53.474;9.894;2023-06-22T13:46:21;28.80;59.80
12819;DHT22;6474;53.474;9.894;2023-06-22T13:48:49;28.90;59.80
12819;DHT22;6474;53.474;9.894;2023-06-22T13:51:22;28.90;59.70
12819;DHT22;6474;53.474;9.894;2023-06-22T13:53:50;28.90;59.70
12819;DHT22;6474;53.474;9.894;2023-06-22T13:56:17;28.80;59.70
12819;DHT22;6474;53.474;9.894;2023-06-22T13:58:45;28.80;59.70
12819;DHT22;6474;53.474;9.894;2023-06-22T14:01:13;28.70;59.70
12819;DHT22;6474;53.474;9.894;2023-06-22T14:03:43;28.60;59.80
12819;DHT22;6474;53.474;9.894;2023-06-22T14:06:13;28.50;59.80
12819;DHT22;6474;53.474;9.894;2023-06-22T14:08:42;28.30;59.90
12819;DHT22;6474;53.474;9.894;2023-06-22T14:11:10;28.20;59.90
12819;DHT22;6474;53.474;9.894;2023-06-22T14:13:38;28.10;60.00
12819;DHT22;6474;53.474;9.894;2023-06-22T14:16:08;28.10;60.20
12819;DHT22;6474;53.474;9.894;2023-06-22T14:18:36;28.00;60.20
12819;DHT22;6474;53.474;9.894;2023-06-22T14:21:04;27.90;60.10
12819;DHT22;6474;53.474;9.894;2023-06-22T14:23:32;27.80;60.10
12819;DHT22;6474;53.474;9.894;2023-06-22T14:26:02;27.70;60.00
12819;DHT22;6474;53.474;9.894;2023-06-22T14:28:30;27.60;60.00
12819;DHT22;6474;53.474;9.894;2023-06-22T14:30:58;27.40;60.10
12819;DHT22;6474;53.474;9.894;2023-06-22T14:33:26;27.30;60.30
12819;DHT22;6474;53.474;9.894;2023-06-22T14:35:54;27.20;60.60
12819;DHT22;6474;53.474;9.894;2023-06-22T14:38:21;27.00;60.40
12819;DHT22;6474;53.474;9.894;2023-06-22T14:40:51;26.90;60.60
12819;DHT22;6474;53.474;9.894;2023-06-22T14:43:43;26.90;60.80
12819;DHT22;6474;53.474;9.894;2023-06-22T14:46:11;26.80;60.90
12819;DHT22;6474;53.474;9.894;2023-06-22T14:48:39;26.80;60.90
12819;DHT22;6474;53.474;9.894;2023-06-22T14:51:08;26.80;60.90
12819;DHT22;6474;53.474;9.894;2023-06-22T14:53:37;26.70;60.90
12819;DHT22;6474;53.474;9.894;2023-06-22T14:56:05;26.70;61.00
12819;DHT22;6474;53.474;9.894;2023-06-22T14:58:33;26.70;60.80
12819;DHT22;6474;53.474;9.894;2023-06-22T15:01:04;26.70;60.80
12819;DHT22;6474;53.474;9.894;2023-06-22T15:03:35;26.70;60.70
12819;DHT22;6474;53.474;9.894;2023-06-22T15:06:03;26.70;60.80
12819;DHT22;6474;53.474;9.894;2023-06-22T15:08:31;26.70;60.70
12819;DHT22;6474;53.474;9.894;2023-06-22T15:10:59;26.60;60.60
12819;DHT22;6474;53.474;9.894;2023-06-22T15:13:29;26.60;60.70
12819;DHT22;6474;53.474;9.894;2023-06-22T15:15:59;26.60;60.70
12819;DHT22;6474;53.474;9.894;2023-06-22T15:18:29;26.60;61.50
12819;DHT22;6474;53.474;9.894;2023-06-22T15:20:57;26.50;60.60
12819;DHT22;6474;53.474;9.894;2023-06-22T15:23:26;26.50;60.70
12819;DHT22;6474;53.474;9.894;2023-06-22T15:25:55;26.50;60.60
12819;DHT22;6474;53.474;9.894;2023-06-22T15:28:23;26.50;60.60
12819;DHT22;6474;53.474;9.894;2023-06-22T15:30:51;26.50;60.60
12819;DHT22;6474;53.474;9.894;2023-06-22T15:33:19;26.40;60.50
12819;DHT22;6474;53.474;9.894;2023-06-22T15:35:49;26.40;60.50
12819;DHT22;6474;53.474;9.894;2023-06-22T15:38:16;26.40;60.50
12819;DHT22;6474;53.474;9.894;2023-06-22T15:40:44;26.40;60.40
12819;DHT22;6474;53.474;9.894;2023-06-22T15:43:12;26.40;60.40
12819;DHT22;6474;53.474;9.894;2023-06-22T15:45:41;26.40;60.40
12819;DHT22;6474;53.474;9.894;2023-06-22T15:48:08;26.30;60.30
12819;DHT22;6474;53.474;9.894;2023-06-22T15:50:37;26.30;60.30
12819;DHT22;6474;53.474;9.894;2023-06-22T15:53:06;26.30;60.40
12819;DHT22;6474;53.474;9.894;2023-06-22T15:55:36;26.30;60.40
12819;DHT22;6474;53.474;9.894;2023-06-22T15:58:04;26.20;61.10